createdAt,value
2023-05-04T00:01:26.448Z,101601.00
2023-05-04T00:03:54.714Z,101603.00
2023-05-04T00:06:21.849Z,101608.00
2023-05-04T00:08:50.420Z,101606.00
2023-05-04T00:11:17.382Z,101601.00
2023-05-04T00:13:43.925Z,101600.00
2023-05-04T00:16:11.183Z,101602.00
2023-05-04T00:18:38.489Z,101586.00
2023-05-04T00:21:05.256Z,101605.00
2023-05-04T00:23:31.821Z,101600.00
2023-05-04T00:25:59.229Z,101593.00
2023-05-04T00:28:25.816Z,101596.00
2023-05-04T00:30:55.574Z,101593.00
2023-05-04T00:33:22.537Z,101592.00
2023-05-04T00:35:49.076Z,101582.00
2023-05-04T00:38:16.761Z,101594.00
2023-05-04T00:40:43.403Z,101578.00
2023-05-04T00:43:10.928Z,101583.00
2023-05-04T00:45:37.725Z,101574.00
2023-05-04T00:48:05.249Z,101585.00
2023-05-04T00:50:31.819Z,101589.00
2023-05-04T00:53:00.127Z,101592.00
2023-05-04T00:55:26.786Z,101588.00
2023-05-04T00:57:53.657Z,101587.00
2023-05-04T01:00:20.524Z,101582.00
2023-05-04T01:02:47.059Z,101592.00
2023-05-04T01:05:13.835Z,101578.00
2023-05-04T01:07:52.779Z,101590.00
2023-05-04T01:10:28.936Z,101576.00
2023-05-04T01:13:00.487Z,101579.00
2023-05-04T01:15:27.395Z,101581.00
2023-05-04T01:17:55.626Z,101576.00
2023-05-04T01:20:22.195Z,101577.00
2023-05-04T01:22:48.798Z,101573.00
2023-05-04T01:25:16.184Z,101576.00
2023-05-04T01:28:10.337Z,101577.00
2023-05-04T01:30:39.868Z,101575.00
2023-05-04T01:33:06.335Z,101586.00
2023-05-04T01:35:33.147Z,101578.00
2023-05-04T01:37:59.766Z,101584.00
2023-05-04T01:40:26.341Z,101583.00
2023-05-04T01:42:52.828Z,101579.00
2023-05-04T01:45:19.550Z,101573.00
2023-05-04T01:47:46.385Z,101583.00
2023-05-04T01:50:12.982Z,101567.00
2023-05-04T01:52:39.771Z,101586.00
2023-05-04T01:55:06.504Z,101569.00
2023-05-04T01:57:33.045Z,101574.00
2023-05-04T01:59:59.650Z,101566.00
2023-05-04T02:02:26.180Z,101571.00
2023-05-04T02:04:52.709Z,101563.00
2023-05-04T02:07:19.264Z,101567.00
2023-05-04T02:09:45.863Z,101580.00
2023-05-04T02:12:12.431Z,101571.00
2023-05-04T02:14:39.044Z,101570.00
2023-05-04T02:17:06.383Z,101562.00
2023-05-04T02:19:32.898Z,101561.00
2023-05-04T02:21:59.523Z,101562.00
2023-05-04T02:24:26.237Z,101560.00
2023-05-04T02:26:52.740Z,101555.00
2023-05-04T02:29:19.296Z,101557.00
2023-05-04T02:31:45.822Z,101555.00
2023-05-04T02:34:13.874Z,101558.00
2023-05-04T02:36:47.082Z,101562.00
2023-05-04T02:39:13.952Z,101562.00
2023-05-04T02:41:40.458Z,101551.00
2023-05-04T02:44:07.029Z,101562.00
2023-05-04T02:46:33.498Z,101556.00
2023-05-04T02:49:00.133Z,101564.00
2023-05-04T02:51:26.611Z,101558.00
2023-05-04T02:53:53.125Z,101560.00
2023-05-04T02:56:19.645Z,101567.00
2023-05-04T02:58:46.551Z,101562.00
2023-05-04T03:01:13.054Z,101564.00
2023-05-04T03:03:39.586Z,101560.00
2023-05-04T03:06:06.254Z,101558.00
2023-05-04T03:08:32.908Z,101563.00
2023-05-04T03:10:59.485Z,101557.00
2023-05-04T03:13:26.018Z,101561.00
2023-05-04T03:15:52.527Z,101556.00
2023-05-04T03:18:19.188Z,101551.00
2023-05-04T03:20:47.687Z,101551.00
2023-05-04T03:23:17.961Z,101554.00
2023-05-04T03:25:44.479Z,101556.00
2023-05-04T03:28:10.986Z,101555.00
2023-05-04T03:30:38.156Z,101552.00
2023-05-04T03:33:04.739Z,101551.00
2023-05-04T03:35:31.436Z,101553.00
2023-05-04T03:37:57.924Z,101545.00
2023-05-04T03:40:24.613Z,101555.00
2023-05-04T03:42:53.244Z,101548.00
2023-05-04T03:45:22.669Z,101554.00
2023-05-04T03:47:49.236Z,101562.00
2023-05-04T03:50:15.978Z,101558.00
2023-05-04T03:52:42.613Z,101545.00
2023-05-04T03:55:10.358Z,101545.00
2023-05-04T03:57:36.992Z,101550.00
2023-05-04T04:00:04.950Z,101548.00
2023-05-04T04:02:41.654Z,101540.00
2023-05-04T04:05:13.400Z,101547.00
2023-05-04T04:07:41.325Z,101542.00
2023-05-04T04:10:08.813Z,101552.00
2023-05-04T04:12:35.519Z,101544.00
2023-05-04T04:15:02.110Z,101550.00
2023-05-04T04:17:28.672Z,101553.00
2023-05-04T04:19:55.255Z,101545.00
2023-05-04T04:22:21.717Z,101539.00
2023-05-04T04:24:48.343Z,101554.00
2023-05-04T04:27:14.868Z,101542.00
2023-05-04T04:29:41.504Z,101542.00
2023-05-04T04:32:08.513Z,101540.00
2023-05-04T04:34:35.295Z,101533.00
2023-05-04T04:37:01.841Z,101541.00
2023-05-04T04:39:28.459Z,101541.00
2023-05-04T04:41:55.001Z,101539.00
2023-05-04T04:44:21.481Z,101550.00
2023-05-04T04:46:48.383Z,101548.00
2023-05-04T04:49:17.563Z,101532.00
2023-05-04T04:51:44.484Z,101537.00
2023-05-04T04:54:11.466Z,101537.00
2023-05-04T04:56:40.467Z,101549.00
2023-05-04T04:59:07.160Z,101543.00
2023-05-04T05:01:33.714Z,101544.00
2023-05-04T05:04:00.301Z,101542.00
2023-05-04T05:06:32.499Z,101539.00
2023-05-04T05:08:59.039Z,101551.00
2023-05-04T05:11:25.806Z,101547.00
2023-05-04T05:13:52.275Z,101544.00
2023-05-04T05:16:18.960Z,101543.00
2023-05-04T05:18:45.542Z,101532.00
2023-05-04T05:21:12.055Z,101532.00
2023-05-04T05:23:38.559Z,101531.00
2023-05-04T05:26:05.074Z,101542.00
2023-05-04T05:28:32.150Z,101540.00
2023-05-04T05:30:58.753Z,101542.00
2023-05-04T05:33:25.317Z,101539.00
2023-05-04T05:35:52.465Z,101534.00
2023-05-04T05:38:19.079Z,101537.00
2023-05-04T05:40:45.572Z,101543.00
2023-05-04T05:43:12.431Z,101535.00
2023-05-04T05:45:39.045Z,101539.00
2023-05-04T05:48:06.521Z,101536.00
2023-05-04T05:50:34.184Z,101525.00
2023-05-04T05:53:00.808Z,101523.00
2023-05-04T05:55:27.383Z,101526.00
2023-05-04T05:57:53.910Z,101537.00
2023-05-04T06:00:20.761Z,101537.00
2023-05-04T06:02:47.511Z,101532.00
2023-05-04T06:05:14.078Z,101534.00
2023-05-04T06:07:40.610Z,101522.00
2023-05-04T06:10:08.769Z,101533.00
2023-05-04T06:12:35.869Z,101529.00
2023-05-04T06:15:02.555Z,101525.00
2023-05-04T06:17:29.189Z,101526.00
2023-05-04T06:19:55.950Z,101528.00
2023-05-04T06:22:22.566Z,101524.00
2023-05-04T06:24:49.093Z,101524.00
2023-05-04T06:27:15.849Z,101524.00
2023-05-04T06:29:42.652Z,101524.00
2023-05-04T06:32:12.029Z,101528.00
2023-05-04T06:34:38.462Z,101529.00
2023-05-04T06:37:06.068Z,101523.00
2023-05-04T06:39:32.957Z,101525.00
2023-05-04T06:41:59.583Z,101526.00
2023-05-04T06:44:27.649Z,101526.00
2023-05-04T06:46:54.237Z,101534.00
2023-05-04T06:49:20.893Z,101516.00
2023-05-04T06:51:47.363Z,101537.00
2023-05-04T06:54:13.897Z,101536.00
2023-05-04T06:56:40.674Z,101536.00
2023-05-04T06:59:08.168Z,101531.00
2023-05-04T07:01:34.872Z,101536.00
2023-05-04T07:04:01.523Z,101535.00
2023-05-04T07:06:29.451Z,101542.00
2023-05-04T07:09:00.085Z,101529.00
2023-05-04T07:11:27.910Z,101533.00
2023-05-04T07:13:54.501Z,101534.00
2023-05-04T07:16:21.300Z,101528.00
2023-05-04T07:18:47.917Z,101533.00
2023-05-04T07:21:26.973Z,101531.00
2023-05-04T07:23:55.001Z,101534.00
2023-05-04T07:26:22.503Z,101531.00
2023-05-04T07:28:49.111Z,101526.00
2023-05-04T07:31:15.969Z,101527.00
2023-05-04T07:33:42.652Z,101524.00
2023-05-04T07:36:09.666Z,101508.00
2023-05-04T07:38:36.474Z,101516.00
2023-05-04T07:41:03.020Z,101507.00
2023-05-04T07:43:29.709Z,101515.00
2023-05-04T07:45:56.521Z,101518.00
2023-05-04T07:48:25.228Z,101517.00
2023-05-04T07:50:53.635Z,101513.00
2023-05-04T07:53:25.311Z,101499.00
2023-05-04T07:55:54.118Z,101513.00
2023-05-04T07:58:20.976Z,101516.00
2023-05-04T08:00:47.620Z,101504.00
2023-05-04T08:03:14.218Z,101500.00
2023-05-04T08:05:40.942Z,101504.00
2023-05-04T08:08:08.679Z,101506.00
2023-05-04T08:10:38.645Z,101500.00
2023-05-04T08:13:05.841Z,101502.00
2023-05-04T08:15:32.542Z,101490.00
2023-05-04T08:17:59.225Z,101502.00
2023-05-04T08:20:25.927Z,101502.00
2023-05-04T08:22:53.250Z,101496.00
2023-05-04T08:25:19.911Z,101500.00
2023-05-04T08:27:46.720Z,101492.00
2023-05-04T08:30:13.684Z,101490.00
2023-05-04T08:32:40.343Z,101492.00
2023-05-04T08:35:07.252Z,101496.00
2023-05-04T08:37:34.092Z,101486.00
2023-05-04T08:40:00.588Z,101484.00
2023-05-04T08:42:32.072Z,101480.00
2023-05-04T08:44:59.323Z,101479.00
2023-05-04T08:47:27.061Z,101487.00
2023-05-04T08:49:54.523Z,101485.00
2023-05-04T08:52:25.631Z,101486.00
2023-05-04T08:54:56.695Z,101484.00
2023-05-04T08:57:23.971Z,101481.00
2023-05-04T08:59:54.980Z,101482.00
2023-05-04T09:02:22.790Z,101477.00
2023-05-04T09:04:53.508Z,101469.00
2023-05-04T09:07:20.985Z,101470.00
2023-05-04T09:09:50.460Z,101471.00
2023-05-04T09:12:18.055Z,101474.00
2023-05-04T09:14:46.293Z,101473.00
2023-05-04T09:17:17.858Z,101473.00
2023-05-04T09:19:44.686Z,101486.00
2023-05-04T09:22:18.005Z,101480.00
2023-05-04T09:24:45.577Z,101467.00
2023-05-04T09:27:13.549Z,101473.00
2023-05-04T09:29:42.238Z,101481.00
2023-05-04T09:32:13.396Z,101469.00
2023-05-04T09:34:53.330Z,101481.00
2023-05-04T09:37:21.238Z,101471.00
2023-05-04T09:39:59.902Z,101475.00
2023-05-04T09:42:26.709Z,101468.00
2023-05-04T09:45:04.469Z,101464.00
2023-05-04T09:47:35.817Z,101463.00
2023-05-04T09:50:21.016Z,101458.00
2023-05-04T09:52:49.415Z,101454.00
2023-05-04T09:55:18.090Z,101457.00
2023-05-04T09:57:46.514Z,101460.00
2023-05-04T10:00:16.132Z,101455.00
2023-05-04T10:02:47.153Z,101456.00
2023-05-04T10:05:18.083Z,101454.00
2023-05-04T10:07:45.149Z,101453.00
2023-05-04T10:10:13.074Z,101452.00
2023-05-04T10:12:40.024Z,101445.00
2023-05-04T10:15:10.958Z,101440.00
2023-05-04T10:17:46.261Z,101437.00
2023-05-04T10:20:24.137Z,101439.00
2023-05-04T10:23:02.491Z,101427.00
2023-05-04T10:26:04.597Z,101429.00
2023-05-04T10:28:39.892Z,101421.00
2023-05-04T10:31:07.342Z,101413.00
2023-05-04T10:33:43.130Z,101409.00
2023-05-04T10:36:10.671Z,101412.00
2023-05-04T10:38:39.116Z,101411.00
2023-05-04T10:41:19.284Z,101400.00
2023-05-04T10:43:50.833Z,101401.00
2023-05-04T10:46:21.383Z,101392.00
2023-05-04T10:48:48.789Z,101387.00
2023-05-04T10:51:19.836Z,101392.00
2023-05-04T10:53:47.220Z,101371.00
2023-05-04T10:56:29.414Z,101377.00
2023-05-04T10:58:55.978Z,101375.00
2023-05-04T11:01:22.596Z,101368.00
2023-05-04T11:03:49.607Z,101348.00
2023-05-04T11:06:24.035Z,101368.00
2023-05-04T11:09:01.325Z,101365.00
2023-05-04T11:11:27.884Z,101357.00
2023-05-04T11:13:54.629Z,101359.00
2023-05-04T11:16:27.653Z,101356.00
2023-05-04T11:18:54.721Z,101341.00
2023-05-04T11:21:27.640Z,101337.00
2023-05-04T11:23:58.228Z,101345.00
2023-05-04T11:26:25.085Z,101332.00
2023-05-04T11:28:51.905Z,101340.00
2023-05-04T11:31:20.307Z,101338.00
2023-05-04T11:33:54.486Z,101339.00
2023-05-04T11:36:24.316Z,101343.00
2023-05-04T11:38:51.152Z,101337.00
2023-05-04T11:41:17.629Z,101324.00
2023-05-04T11:43:45.226Z,101333.00
2023-05-04T11:46:12.666Z,101330.00
2023-05-04T11:48:39.831Z,101328.00
2023-05-04T11:51:06.664Z,101327.00
2023-05-04T11:53:38.330Z,101321.00
2023-05-04T11:56:05.817Z,101325.00
2023-05-04T11:58:32.346Z,101332.00
2023-05-04T12:00:59.041Z,101313.00
2023-05-04T12:03:39.870Z,101318.00
2023-05-04T12:06:16.369Z,101314.00
2023-05-04T12:08:43.248Z,101303.00
2023-05-04T12:11:21.707Z,101299.00
2023-05-04T12:13:49.660Z,101315.00
2023-05-04T12:16:20.328Z,101305.00
2023-05-04T12:18:47.594Z,101304.00
2023-05-04T12:21:18.725Z,101305.00
2023-05-04T12:23:46.802Z,101301.00
2023-05-04T12:26:14.241Z,101308.00
2023-05-04T12:28:42.491Z,101294.00
2023-05-04T12:31:10.182Z,101296.00
2023-05-04T12:33:36.826Z,101299.00
2023-05-04T12:36:05.185Z,101302.00
2023-05-04T12:38:31.909Z,101289.00
2023-05-04T12:41:00.694Z,101297.00
2023-05-04T12:43:27.110Z,101294.00
2023-05-04T12:45:53.829Z,101290.00
2023-05-04T12:48:26.357Z,101262.00
2023-05-04T12:50:53.101Z,101286.00
2023-05-04T12:53:22.312Z,101286.00
2023-05-04T12:55:49.002Z,101290.00
2023-05-04T12:58:15.505Z,101281.00
2023-05-04T13:00:45.730Z,101281.00
2023-05-04T13:03:13.013Z,101282.00
2023-05-04T13:05:40.018Z,101272.00
2023-05-04T13:08:06.582Z,101284.00
2023-05-04T13:10:33.151Z,101259.00
2023-05-04T13:12:59.777Z,101276.00
2023-05-04T13:15:28.632Z,101268.00
2023-05-04T13:17:55.240Z,101265.00
2023-05-04T13:20:22.706Z,101262.00
2023-05-04T13:22:50.476Z,101260.00
2023-05-04T13:25:17.267Z,101251.00
2023-05-04T13:27:43.995Z,101245.00
2023-05-04T13:30:11.970Z,101252.00
2023-05-04T13:32:38.674Z,101240.00
2023-05-04T13:35:06.154Z,101251.00
2023-05-04T13:37:33.374Z,101242.00
2023-05-04T13:40:01.735Z,101247.00
2023-05-04T13:42:28.472Z,101235.00
2023-05-04T13:44:55.144Z,101243.00
2023-05-04T13:47:23.935Z,101238.00
2023-05-04T13:49:51.025Z,101232.00
2023-05-04T13:52:17.664Z,101223.00
2023-05-04T13:54:44.294Z,101222.00
2023-05-04T13:57:10.794Z,101211.00
2023-05-04T13:59:37.378Z,101210.00
2023-05-04T14:02:03.993Z,101207.00
2023-05-04T14:04:31.600Z,101209.00
2023-05-04T14:06:58.136Z,101208.00
2023-05-04T14:09:25.906Z,101195.00
2023-05-04T14:11:53.461Z,101200.00
2023-05-04T14:14:21.728Z,101191.00
2023-05-04T14:16:55.440Z,101192.00
2023-05-04T14:19:22.200Z,101178.00
2023-05-04T14:21:48.707Z,101188.00
2023-05-04T14:24:15.362Z,101175.00
2023-05-04T14:26:41.911Z,101165.00
2023-05-04T14:29:08.465Z,101164.00
2023-05-04T14:31:35.036Z,101170.00
2023-05-04T14:34:01.850Z,101166.00
2023-05-04T14:36:28.387Z,101162.00
2023-05-04T14:38:55.229Z,101159.00
2023-05-04T14:41:22.141Z,101156.00
2023-05-04T14:43:48.706Z,101145.00
2023-05-04T14:46:15.348Z,101149.00
2023-05-04T14:48:41.935Z,101151.00
2023-05-04T14:51:08.518Z,101137.00
2023-05-04T14:53:37.148Z,101135.00
2023-05-04T14:56:05.445Z,101137.00
2023-05-04T14:58:31.999Z,101135.00
2023-05-04T15:00:58.668Z,101129.00
2023-05-04T15:03:25.929Z,101126.00
2023-05-04T15:05:52.803Z,101130.00
2023-05-04T15:08:19.453Z,101134.00
2023-05-04T15:10:46.242Z,101131.00
2023-05-04T15:13:15.582Z,101130.00
2023-05-04T15:15:42.793Z,101126.00
2023-05-04T15:18:12.406Z,101119.00
2023-05-04T15:20:39.176Z,101128.00
2023-05-04T15:23:10.497Z,101111.00
2023-05-04T15:25:41.983Z,101101.00
2023-05-04T15:28:11.969Z,101113.00
2023-05-04T15:30:39.742Z,101105.00
2023-05-04T15:33:06.932Z,101103.00
2023-05-04T15:35:34.676Z,101090.00
2023-05-04T15:38:01.821Z,101100.00
2023-05-04T15:40:28.600Z,101092.00
2023-05-04T15:42:55.481Z,101100.00
2023-05-04T15:45:22.283Z,101101.00
2023-05-04T15:47:49.204Z,101093.00
2023-05-04T15:50:15.806Z,101087.00
2023-05-04T15:52:42.508Z,101083.00
2023-05-04T15:55:20.435Z,101075.00
2023-05-04T15:57:51.035Z,101078.00
2023-05-04T16:00:18.461Z,101077.00
2023-05-04T16:02:45.166Z,101077.00
2023-05-04T16:05:11.785Z,101073.00
2023-05-04T16:07:38.476Z,101075.00
2023-05-04T16:10:05.763Z,101074.00
2023-05-04T16:12:32.585Z,101078.00
2023-05-04T16:15:02.288Z,101077.00
2023-05-04T16:17:30.526Z,101069.00
2023-05-04T16:19:57.172Z,101068.00
2023-05-04T16:22:23.707Z,101068.00
2023-05-04T16:24:50.282Z,101069.00
2023-05-04T16:27:16.864Z,101069.00
2023-05-04T16:29:43.457Z,101065.00
2023-05-04T16:32:10.063Z,101063.00
2023-05-04T16:34:37.008Z,101062.00
2023-05-04T16:37:03.611Z,101061.00
2023-05-04T16:39:31.282Z,101045.00
2023-05-04T16:41:59.111Z,101047.00
2023-05-04T16:44:26.341Z,101051.00
2023-05-04T16:46:54.452Z,101053.00
2023-05-04T16:49:21.899Z,101040.00
2023-05-04T16:51:48.555Z,101045.00
2023-05-04T16:54:16.460Z,101040.00
2023-05-04T16:56:43.100Z,101047.00
2023-05-04T16:59:09.857Z,101041.00
2023-05-04T17:01:36.400Z,101032.00
2023-05-04T17:04:03.107Z,101021.00
2023-05-04T17:06:29.732Z,101034.00
2023-05-04T17:08:56.396Z,101040.00
2023-05-04T17:11:23.973Z,101032.00
2023-05-04T17:13:51.069Z,101036.00
2023-05-04T17:16:17.810Z,101040.00
2023-05-04T17:18:45.781Z,101042.00
2023-05-04T17:21:12.297Z,101033.00
2023-05-04T17:23:38.865Z,101021.00
2023-05-04T17:26:06.257Z,101030.00
2023-05-04T17:28:32.808Z,101029.00
2023-05-04T17:30:59.484Z,101034.00
2023-05-04T17:33:26.124Z,101032.00
2023-05-04T17:35:52.700Z,101033.00
2023-05-04T17:38:19.220Z,101030.00
2023-05-04T17:40:45.733Z,101036.00
2023-05-04T17:43:12.210Z,101037.00
2023-05-04T17:45:38.770Z,101035.00
2023-05-04T17:48:14.658Z,101040.00
2023-05-04T17:50:41.474Z,101042.00
2023-05-04T17:53:07.977Z,101026.00
2023-05-04T17:55:38.975Z,101035.00
2023-05-04T17:58:05.722Z,101026.00
2023-05-04T18:00:36.634Z,101027.00
2023-05-04T18:03:03.283Z,101032.00
2023-05-04T18:05:29.941Z,101035.00
2023-05-04T18:07:56.457Z,101022.00
2023-05-04T18:10:23.062Z,101036.00
2023-05-04T18:12:49.886Z,101037.00
2023-05-04T18:15:17.786Z,101046.00
2023-05-04T18:17:44.440Z,101045.00
2023-05-04T18:20:13.006Z,101050.00
2023-05-04T18:22:39.549Z,101057.00
2023-05-04T18:25:06.864Z,101049.00
2023-05-04T18:27:34.523Z,101060.00
2023-05-04T18:30:02.323Z,101056.00
2023-05-04T18:32:29.137Z,101058.00
2023-05-04T18:34:57.832Z,101062.00
2023-05-04T18:37:25.075Z,101061.00
2023-05-04T18:39:51.859Z,101057.00
2023-05-04T18:42:18.349Z,101060.00
2023-05-04T18:44:44.968Z,101062.00
2023-05-04T18:47:11.579Z,101061.00
2023-05-04T18:49:38.247Z,101072.00
2023-05-04T18:52:05.117Z,101058.00
2023-05-04T18:54:34.680Z,101070.00
2023-05-04T18:57:01.202Z,101073.00
2023-05-04T18:59:27.859Z,101066.00
2023-05-04T19:01:55.439Z,101077.00
2023-05-04T19:04:22.159Z,101078.00
2023-05-04T19:06:51.620Z,101076.00
2023-05-04T19:09:18.721Z,101078.00
2023-05-04T19:11:46.679Z,101083.00
2023-05-04T19:14:13.526Z,101085.00
2023-05-04T19:16:40.245Z,101079.00
2023-05-04T19:19:07.104Z,101082.00
2023-05-04T19:21:33.627Z,101087.00
2023-05-04T19:24:00.402Z,101085.00
2023-05-04T19:26:26.975Z,101081.00
2023-05-04T19:28:53.512Z,101077.00
2023-05-04T19:31:20.329Z,101068.00
2023-05-04T19:33:48.760Z,101065.00
2023-05-04T19:36:16.286Z,101063.00
2023-05-04T19:38:42.866Z,101063.00
2023-05-04T19:41:09.485Z,101067.00
2023-05-04T19:43:38.204Z,101055.00
2023-05-04T19:46:04.737Z,101069.00
2023-05-04T19:48:31.262Z,101066.00
2023-05-04T19:50:57.860Z,101067.00
2023-05-04T19:53:24.580Z,101071.00
2023-05-04T19:55:51.382Z,101070.00
2023-05-04T19:58:17.900Z,101071.00
2023-05-04T20:00:44.453Z,101065.00
2023-05-04T20:03:11.102Z,101078.00
2023-05-04T20:05:38.419Z,101074.00
2023-05-04T20:08:05.428Z,101082.00
2023-05-04T20:10:32.235Z,101076.00
2023-05-04T20:12:58.919Z,101072.00
2023-05-04T20:15:25.895Z,101071.00
2023-05-04T20:17:52.671Z,101072.00
2023-05-04T20:20:21.376Z,101079.00
2023-05-04T20:22:51.927Z,101078.00
2023-05-04T20:25:19.785Z,101079.00
2023-05-04T20:27:48.476Z,101082.00
2023-05-04T20:30:15.273Z,101079.00
2023-05-04T20:32:42.569Z,101082.00
2023-05-04T20:35:09.478Z,101083.00
2023-05-04T20:37:36.174Z,101087.00
2023-05-04T20:40:02.753Z,101083.00
2023-05-04T20:42:29.287Z,101073.00
2023-05-04T20:44:55.767Z,101073.00
2023-05-04T20:47:22.501Z,101071.00
2023-05-04T20:49:49.076Z,101071.00
2023-05-04T20:52:16.000Z,101071.00
2023-05-04T20:54:42.564Z,101072.00
2023-05-04T20:57:09.118Z,101073.00
2023-05-04T20:59:35.689Z,101075.00
2023-05-04T21:02:02.198Z,101071.00
2023-05-04T21:04:28.746Z,101066.00
2023-05-04T21:06:56.889Z,101063.00
2023-05-04T21:09:23.433Z,101062.00
2023-05-04T21:11:50.421Z,101059.00
2023-05-04T21:14:17.004Z,101057.00
2023-05-04T21:16:43.558Z,101058.00
2023-05-04T21:19:10.157Z,101050.00
2023-05-04T21:21:40.652Z,101045.00
2023-05-04T21:24:13.743Z,101051.00
2023-05-04T21:26:41.257Z,101048.00
2023-05-04T21:29:12.724Z,101050.00
2023-05-04T21:31:39.524Z,101055.00
2023-05-04T21:34:06.237Z,101041.00
2023-05-04T21:36:32.913Z,101045.00
2023-05-04T21:38:59.430Z,101049.00
2023-05-04T21:41:25.938Z,101043.00
2023-05-04T21:43:52.427Z,101039.00
2023-05-04T21:46:19.075Z,101043.00
2023-05-04T21:48:45.726Z,101040.00
2023-05-04T21:51:12.518Z,101045.00
2023-05-04T21:53:39.066Z,101040.00
2023-05-04T21:56:06.595Z,101045.00
2023-05-04T21:58:33.165Z,101035.00
2023-05-04T22:00:59.686Z,101041.00
2023-05-04T22:03:26.335Z,101038.00
2023-05-04T22:05:54.248Z,101038.00
2023-05-04T22:08:24.788Z,101046.00
2023-05-04T22:10:52.758Z,101046.00
2023-05-04T22:13:19.499Z,101047.00
2023-05-04T22:15:50.061Z,101056.00
2023-05-04T22:18:17.339Z,101049.00
2023-05-04T22:20:44.086Z,101055.00
2023-05-04T22:23:11.061Z,101049.00
2023-05-04T22:25:38.040Z,101054.00
2023-05-04T22:28:05.202Z,101047.00
2023-05-04T22:30:31.778Z,101058.00
2023-05-04T22:32:58.793Z,101050.00
2023-05-04T22:35:25.415Z,101042.00
2023-05-04T22:37:52.032Z,101046.00
2023-05-04T22:40:18.596Z,101043.00
2023-05-04T22:42:45.587Z,101031.00
2023-05-04T22:45:17.925Z,101034.00
2023-05-04T22:47:45.198Z,101039.00
2023-05-04T22:50:11.743Z,101050.00
2023-05-04T22:52:39.337Z,101048.00
2023-05-04T22:55:06.929Z,101048.00
2023-05-04T22:57:33.499Z,101049.00
2023-05-04T23:00:00.178Z,101052.00
2023-05-04T23:02:27.219Z,101060.00
2023-05-04T23:04:53.772Z,101058.00
2023-05-04T23:07:20.399Z,101048.00
2023-05-04T23:09:47.430Z,101032.00
2023-05-04T23:12:15.071Z,101051.00
2023-05-04T23:14:41.680Z,101049.00
2023-05-04T23:17:08.453Z,101049.00
2023-05-04T23:19:34.977Z,101037.00
2023-05-04T23:22:01.643Z,101059.00
2023-05-04T23:24:28.195Z,101058.00
2023-05-04T23:26:54.711Z,101057.00
2023-05-04T23:29:21.303Z,101054.00
2023-05-04T23:31:47.825Z,101053.00
2023-05-04T23:34:14.416Z,101049.00
2023-05-04T23:36:41.133Z,101056.00
2023-05-04T23:39:07.940Z,101046.00
2023-05-04T23:41:34.605Z,101042.00
2023-05-04T23:44:01.810Z,101046.00
2023-05-04T23:46:28.356Z,101042.00
2023-05-04T23:48:54.922Z,101040.00
2023-05-04T23:51:21.538Z,101041.00
2023-05-04T23:53:48.133Z,101032.00
2023-05-04T23:56:14.741Z,101041.00
2023-05-04T23:58:41.891Z,101042.00
